sensor_id;sensor_type;location;lat;lon;timestamp;temperature;humidity
26707;DHT22;14319;49.422;10.934;2022-11-09T00:01:42;8.80;87.40
26707;DHT22;14319;49.422;10.934;2022-11-09T00:03:43;8.80;87.80
26707;DHT22;14319;49.422;10.934;2022-11-09T00:05:54;8.70;87.90
26707;DHT22;14319;49.422;10.934;2022-11-09T00:07:55;8.70;88.00
26707;DHT22;14319;49.422;10.934;2022-11-09T00:09:55;8.70;87.80
26707;DHT22;14319;49.422;10.934;2022-11-09T00:11:56;8.70;87.90
26707;DHT22;14319;49.422;10.934;2022-11-09T00:13:57;8.70;89.10
26707;DHT22;14319;49.422;10.934;2022-11-09T00:15:59;8.70;88.30
26707;DHT22;14319;49.422;10.934;2022-11-09T00:18:00;8.70;88.50
26707;DHT22;14319;49.422;10.934;2022-11-09T00:20:02;8.70;88.10
26707;DHT22;14319;49.422;10.934;2022-11-09T00:22:03;8.70;88.10
26707;DHT22;14319;49.422;10.934;2022-11-09T00:24:04;8.70;88.00
26707;DHT22;14319;49.422;10.934;2022-11-09T00:26:09;8.70;88.10
26707;DHT22;14319;49.422;10.934;2022-11-09T00:28:10;8.80;87.80
26707;DHT22;14319;49.422;10.934;2022-11-09T00:30:11;8.80;87.30
26707;DHT22;14319;49.422;10.934;2022-11-09T00:32:11;8.70;87.20
26707;DHT22;14319;49.422;10.934;2022-11-09T00:34:12;8.60;88.10
26707;DHT22;14319;49.422;10.934;2022-11-09T00:36:16;8.50;87.40
26707;DHT22;14319;49.422;10.934;2022-11-09T00:38:17;8.50;87.70
26707;DHT22;14319;49.422;10.934;2022-11-09T00:40:18;8.50;87.80
26707;DHT22;14319;49.422;10.934;2022-11-09T00:42:19;8.40;87.90
26707;DHT22;14319;49.422;10.934;2022-11-09T00:44:20;8.40;87.70
26707;DHT22;14319;49.422;10.934;2022-11-09T00:46:21;8.30;88.00
26707;DHT22;14319;49.422;10.934;2022-11-09T00:48:24;8.30;88.30
26707;DHT22;14319;49.422;10.934;2022-11-09T00:50:25;8.30;88.00
26707;DHT22;14319;49.422;10.934;2022-11-09T00:52:26;8.30;88.10
26707;DHT22;14319;49.422;10.934;2022-11-09T00:54:27;8.30;88.20
26707;DHT22;14319;49.422;10.934;2022-11-09T00:56:28;8.30;88.50
26707;DHT22;14319;49.422;10.934;2022-11-09T00:58:35;8.30;88.60
26707;DHT22;14319;49.422;10.934;2022-11-09T01:00:36;8.30;88.30
26707;DHT22;14319;49.422;10.934;2022-11-09T01:02:37;8.30;88.10
26707;DHT22;14319;49.422;10.934;2022-11-09T01:04:38;8.20;88.30
26707;DHT22;14319;49.422;10.934;2022-11-09T01:06:39;8.10;87.90
26707;DHT22;14319;49.422;10.934;2022-11-09T01:08:39;8.10;88.70
26707;DHT22;14319;49.422;10.934;2022-11-09T01:10:43;8.20;89.10
26707;DHT22;14319;49.422;10.934;2022-11-09T01:12:44;8.30;88.90
26707;DHT22;14319;49.422;10.934;2022-11-09T01:14:45;8.30;88.40
26707;DHT22;14319;49.422;10.934;2022-11-09T01:16:46;8.30;88.70
26707;DHT22;14319;49.422;10.934;2022-11-09T01:18:47;8.40;88.40
26707;DHT22;14319;49.422;10.934;2022-11-09T01:20:50;8.50;87.90
26707;DHT22;14319;49.422;10.934;2022-11-09T01:22:50;8.70;88.30
26707;DHT22;14319;49.422;10.934;2022-11-09T01:24:51;8.70;87.90
26707;DHT22;14319;49.422;10.934;2022-11-09T01:26:52;8.70;88.20
26707;DHT22;14319;49.422;10.934;2022-11-09T01:28:54;8.70;88.20
26707;DHT22;14319;49.422;10.934;2022-11-09T01:31:00;8.80;87.50
26707;DHT22;14319;49.422;10.934;2022-11-09T01:33:02;8.70;87.80
26707;DHT22;14319;49.422;10.934;2022-11-09T01:35:04;8.70;88.20
26707;DHT22;14319;49.422;10.934;2022-11-09T01:37:05;8.70;88.20
26707;DHT22;14319;49.422;10.934;2022-11-09T01:39:06;8.50;87.60
26707;DHT22;14319;49.422;10.934;2022-11-09T01:41:10;8.60;88.50
26707;DHT22;14319;49.422;10.934;2022-11-09T01:43:17;8.70;88.00
26707;DHT22;14319;49.422;10.934;2022-11-09T01:47:23;8.70;88.20
26707;DHT22;14319;49.422;10.934;2022-11-09T01:49:51;8.80;87.90
26707;DHT22;14319;49.422;10.934;2022-11-09T01:52:13;8.80;88.20
26707;DHT22;14319;49.422;10.934;2022-11-09T01:54:40;8.80;88.20
26707;DHT22;14319;49.422;10.934;2022-11-09T01:56:39;8.90;88.20
26707;DHT22;14319;49.422;10.934;2022-11-09T01:58:54;8.90;88.00
26707;DHT22;14319;49.422;10.934;2022-11-09T02:00:56;8.90;87.90
26707;DHT22;14319;49.422;10.934;2022-11-09T02:03:05;8.90;87.70
26707;DHT22;14319;49.422;10.934;2022-11-09T02:05:12;8.80;87.20
26707;DHT22;14319;49.422;10.934;2022-11-09T02:07:14;8.90;87.60
26707;DHT22;14319;49.422;10.934;2022-11-09T02:09:33;8.90;87.60
26707;DHT22;14319;49.422;10.934;2022-11-09T02:11:37;9.00;87.10
26707;DHT22;14319;49.422;10.934;2022-11-09T02:13:40;9.00;86.90
26707;DHT22;14319;49.422;10.934;2022-11-09T02:15:42;9.10;86.90
26707;DHT22;14319;49.422;10.934;2022-11-09T02:17:44;9.10;86.90
26707;DHT22;14319;49.422;10.934;2022-11-09T02:19:45;9.00;87.20
26707;DHT22;14319;49.422;10.934;2022-11-09T02:21:46;9.00;87.00
26707;DHT22;14319;49.422;10.934;2022-11-09T02:23:48;9.00;87.00
26707;DHT22;14319;49.422;10.934;2022-11-09T02:25:53;9.00;87.30
26707;DHT22;14319;49.422;10.934;2022-11-09T02:27:56;9.00;87.20
26707;DHT22;14319;49.422;10.934;2022-11-09T02:29:57;9.00;87.40
26707;DHT22;14319;49.422;10.934;2022-11-09T02:32:02;9.10;87.50
26707;DHT22;14319;49.422;10.934;2022-11-09T02:34:07;9.10;87.30
26707;DHT22;14319;49.422;10.934;2022-11-09T02:36:09;9.10;87.60
26707;DHT22;14319;49.422;10.934;2022-11-09T02:38:11;9.10;87.40
26707;DHT22;14319;49.422;10.934;2022-11-09T02:40:17;9.20;87.50
26707;DHT22;14319;49.422;10.934;2022-11-09T02:42:20;9.20;87.20
26707;DHT22;14319;49.422;10.934;2022-11-09T02:44:22;9.30;87.00
26707;DHT22;14319;49.422;10.934;2022-11-09T02:46:30;9.30;86.60
26707;DHT22;14319;49.422;10.934;2022-11-09T02:48:32;9.30;86.40
26707;DHT22;14319;49.422;10.934;2022-11-09T02:50:34;9.30;86.60
26707;DHT22;14319;49.422;10.934;2022-11-09T02:52:37;9.20;86.30
26707;DHT22;14319;49.422;10.934;2022-11-09T02:54:38;9.20;86.80
26707;DHT22;14319;49.422;10.934;2022-11-09T02:56:39;9.10;86.80
26707;DHT22;14319;49.422;10.934;2022-11-09T02:58:39;9.10;87.10
26707;DHT22;14319;49.422;10.934;2022-11-09T03:00:40;9.10;87.50
26707;DHT22;14319;49.422;10.934;2022-11-09T03:02:41;9.20;86.80
26707;DHT22;14319;49.422;10.934;2022-11-09T03:04:42;9.20;86.80
26707;DHT22;14319;49.422;10.934;2022-11-09T03:06:43;9.20;86.70
26707;DHT22;14319;49.422;10.934;2022-11-09T03:08:48;9.20;85.60
26707;DHT22;14319;49.422;10.934;2022-11-09T03:10:48;9.00;85.70
26707;DHT22;14319;49.422;10.934;2022-11-09T03:12:49;9.00;87.00
26707;DHT22;14319;49.422;10.934;2022-11-09T03:14:50;9.00;87.00
26707;DHT22;14319;49.422;10.934;2022-11-09T03:16:51;9.00;87.20
26707;DHT22;14319;49.422;10.934;2022-11-09T03:18:53;9.10;87.40
26707;DHT22;14319;49.422;10.934;2022-11-09T03:21:00;9.10;87.30
26707;DHT22;14319;49.422;10.934;2022-11-09T03:23:01;9.20;87.50
26707;DHT22;14319;49.422;10.934;2022-11-09T03:25:04;9.20;87.30
26707;DHT22;14319;49.422;10.934;2022-11-09T03:27:07;9.30;87.50
26707;DHT22;14319;49.422;10.934;2022-11-09T03:29:07;9.30;87.50
26707;DHT22;14319;49.422;10.934;2022-11-09T03:31:09;9.30;87.30
26707;DHT22;14319;49.422;10.934;2022-11-09T03:33:10;9.30;87.50
26707;DHT22;14319;49.422;10.934;2022-11-09T03:35:15;9.30;87.70
26707;DHT22;14319;49.422;10.934;2022-11-09T03:37:16;9.40;87.60
26707;DHT22;14319;49.422;10.934;2022-11-09T03:39:17;9.40;87.40
26707;DHT22;14319;49.422;10.934;2022-11-09T03:41:18;9.40;88.20
26707;DHT22;14319;49.422;10.934;2022-11-09T03:43:19;9.40;87.20
26707;DHT22;14319;49.422;10.934;2022-11-09T03:45:20;9.40;87.70
26707;DHT22;14319;49.422;10.934;2022-11-09T03:47:21;9.40;88.00
26707;DHT22;14319;49.422;10.934;2022-11-09T03:49:21;9.40;87.50
26707;DHT22;14319;49.422;10.934;2022-11-09T03:51:23;9.40;87.40
26707;DHT22;14319;49.422;10.934;2022-11-09T03:53:24;9.40;87.40
26707;DHT22;14319;49.422;10.934;2022-11-09T03:55:25;9.20;86.50
26707;DHT22;14319;49.422;10.934;2022-11-09T03:57:26;9.10;86.20
26707;DHT22;14319;49.422;10.934;2022-11-09T03:59:27;9.10;86.80
26707;DHT22;14319;49.422;10.934;2022-11-09T04:01:27;9.10;87.20
26707;DHT22;14319;49.422;10.934;2022-11-09T04:03:28;9.10;87.60
26707;DHT22;14319;49.422;10.934;2022-11-09T04:05:29;9.10;87.50
26707;DHT22;14319;49.422;10.934;2022-11-09T04:07:31;9.20;87.50
26707;DHT22;14319;49.422;10.934;2022-11-09T04:09:31;9.30;87.60
26707;DHT22;14319;49.422;10.934;2022-11-09T04:11:32;9.30;87.10
26707;DHT22;14319;49.422;10.934;2022-11-09T04:13:33;9.20;87.10
26707;DHT22;14319;49.422;10.934;2022-11-09T04:15:34;9.30;88.00
26707;DHT22;14319;49.422;10.934;2022-11-09T04:17:35;9.30;87.30
26707;DHT22;14319;49.422;10.934;2022-11-09T04:19:35;9.30;87.10
26707;DHT22;14319;49.422;10.934;2022-11-09T04:21:36;9.40;88.00
26707;DHT22;14319;49.422;10.934;2022-11-09T04:23:37;9.40;88.00
26707;DHT22;14319;49.422;10.934;2022-11-09T04:25:39;9.50;87.80
26707;DHT22;14319;49.422;10.934;2022-11-09T04:27:40;9.60;88.00
26707;DHT22;14319;49.422;10.934;2022-11-09T04:29:41;9.60;87.80
26707;DHT22;14319;49.422;10.934;2022-11-09T04:31:42;9.60;87.70
26707;DHT22;14319;49.422;10.934;2022-11-09T04:33:43;9.70;87.40
26707;DHT22;14319;49.422;10.934;2022-11-09T04:35:43;9.80;87.20
26707;DHT22;14319;49.422;10.934;2022-11-09T04:38:00;9.90;86.70
26707;DHT22;14319;49.422;10.934;2022-11-09T04:40:01;9.90;86.80
26707;DHT22;14319;49.422;10.934;2022-11-09T04:42:02;9.90;86.30
26707;DHT22;14319;49.422;10.934;2022-11-09T04:44:03;9.90;86.50
26707;DHT22;14319;49.422;10.934;2022-11-09T04:46:04;9.90;86.50
26707;DHT22;14319;49.422;10.934;2022-11-09T04:48:06;9.90;86.50
26707;DHT22;14319;49.422;10.934;2022-11-09T04:50:07;9.90;86.80
26707;DHT22;14319;49.422;10.934;2022-11-09T04:52:08;9.80;87.00
26707;DHT22;14319;49.422;10.934;2022-11-09T04:54:09;9.80;86.90
26707;DHT22;14319;49.422;10.934;2022-11-09T04:56:11;9.90;87.00
26707;DHT22;14319;49.422;10.934;2022-11-09T04:58:12;9.90;86.50
26707;DHT22;14319;49.422;10.934;2022-11-09T05:00:13;9.90;86.70
26707;DHT22;14319;49.422;10.934;2022-11-09T05:02:14;9.90;87.00
26707;DHT22;14319;49.422;10.934;2022-11-09T05:04:15;9.90;87.30
26707;DHT22;14319;49.422;10.934;2022-11-09T05:06:16;9.70;86.10
26707;DHT22;14319;49.422;10.934;2022-11-09T05:08:32;9.70;86.80
26707;DHT22;14319;49.422;10.934;2022-11-09T05:10:34;9.70;87.60
26707;DHT22;14319;49.422;10.934;2022-11-09T05:12:35;9.70;87.70
26707;DHT22;14319;49.422;10.934;2022-11-09T05:14:35;9.80;87.80
26707;DHT22;14319;49.422;10.934;2022-11-09T05:16:37;9.80;87.70
26707;DHT22;14319;49.422;10.934;2022-11-09T05:18:38;9.80;87.80
26707;DHT22;14319;49.422;10.934;2022-11-09T05:20:39;9.90;87.80
26707;DHT22;14319;49.422;10.934;2022-11-09T05:22:40;9.90;87.90
26707;DHT22;14319;49.422;10.934;2022-11-09T05:24:59;9.90;87.20
26707;DHT22;14319;49.422;10.934;2022-11-09T05:27:00;9.70;87.50
26707;DHT22;14319;49.422;10.934;2022-11-09T05:29:03;9.80;88.30
26707;DHT22;14319;49.422;10.934;2022-11-09T05:31:05;9.90;87.90
26707;DHT22;14319;49.422;10.934;2022-11-09T05:33:05;9.80;87.90
26707;DHT22;14319;49.422;10.934;2022-11-09T05:35:06;9.80;88.00
26707;DHT22;14319;49.422;10.934;2022-11-09T05:37:07;9.80;88.30
26707;DHT22;14319;49.422;10.934;2022-11-09T05:39:08;9.80;88.20
26707;DHT22;14319;49.422;10.934;2022-11-09T05:41:09;9.80;88.40
26707;DHT22;14319;49.422;10.934;2022-11-09T05:43:10;9.70;88.30
26707;DHT22;14319;49.422;10.934;2022-11-09T05:45:13;9.70;88.50
26707;DHT22;14319;49.422;10.934;2022-11-09T05:47:14;9.70;88.50
26707;DHT22;14319;49.422;10.934;2022-11-09T05:49:15;9.80;88.40
26707;DHT22;14319;49.422;10.934;2022-11-09T05:51:15;9.90;88.30
26707;DHT22;14319;49.422;10.934;2022-11-09T05:53:16;9.90;88.30
26707;DHT22;14319;49.422;10.934;2022-11-09T05:55:17;9.70;87.90
26707;DHT22;14319;49.422;10.934;2022-11-09T05:57:18;9.70;89.10
26707;DHT22;14319;49.422;10.934;2022-11-09T05:59:18;9.70;89.30
26707;DHT22;14319;49.422;10.934;2022-11-09T06:01:19;9.90;88.90
26707;DHT22;14319;49.422;10.934;2022-11-09T06:03:20;10.00;87.80
26707;DHT22;14319;49.422;10.934;2022-11-09T06:05:21;10.00;88.50
26707;DHT22;14319;49.422;10.934;2022-11-09T06:07:22;10.00;89.20
26707;DHT22;14319;49.422;10.934;2022-11-09T06:09:22;9.90;89.30
26707;DHT22;14319;49.422;10.934;2022-11-09T06:11:23;10.00;89.40
26707;DHT22;14319;49.422;10.934;2022-11-09T06:13:24;10.00;90.10
26707;DHT22;14319;49.422;10.934;2022-11-09T06:15:25;9.90;90.70
26707;DHT22;14319;49.422;10.934;2022-11-09T06:17:26;9.90;90.80
26707;DHT22;14319;49.422;10.934;2022-11-09T06:19:28;10.00;90.70
26707;DHT22;14319;49.422;10.934;2022-11-09T06:21:29;10.00;90.80
26707;DHT22;14319;49.422;10.934;2022-11-09T06:23:29;10.00;91.70
26707;DHT22;14319;49.422;10.934;2022-11-09T06:25:31;10.00;91.10
26707;DHT22;14319;49.422;10.934;2022-11-09T06:27:32;10.00;91.10
26707;DHT22;14319;49.422;10.934;2022-11-09T06:29:33;10.10;91.00
26707;DHT22;14319;49.422;10.934;2022-11-09T06:31:34;10.10;90.80
26707;DHT22;14319;49.422;10.934;2022-11-09T06:33:35;10.10;90.70
26707;DHT22;14319;49.422;10.934;2022-11-09T06:35:36;10.20;90.70
26707;DHT22;14319;49.422;10.934;2022-11-09T06:37:40;10.20;90.90
26707;DHT22;14319;49.422;10.934;2022-11-09T06:39:40;10.20;90.90
26707;DHT22;14319;49.422;10.934;2022-11-09T06:41:41;10.20;90.90
26707;DHT22;14319;49.422;10.934;2022-11-09T06:43:42;10.20;91.00
26707;DHT22;14319;49.422;10.934;2022-11-09T06:45:43;10.20;91.20
26707;DHT22;14319;49.422;10.934;2022-11-09T06:47:44;10.20;91.40
26707;DHT22;14319;49.422;10.934;2022-11-09T06:49:45;10.10;91.40
26707;DHT22;14319;49.422;10.934;2022-11-09T06:51:46;10.10;91.60
26707;DHT22;14319;49.422;10.934;2022-11-09T06:53:46;10.10;91.90
26707;DHT22;14319;49.422;10.934;2022-11-09T06:55:47;10.10;91.80
26707;DHT22;14319;49.422;10.934;2022-11-09T06:57:48;10.10;92.40
26707;DHT22;14319;49.422;10.934;2022-11-09T06:59:48;10.10;92.50
26707;DHT22;14319;49.422;10.934;2022-11-09T07:01:49;10.10;92.40
26707;DHT22;14319;49.422;10.934;2022-11-09T07:03:50;10.10;92.40
26707;DHT22;14319;49.422;10.934;2022-11-09T07:05:51;10.10;92.00
26707;DHT22;14319;49.422;10.934;2022-11-09T07:07:53;10.20;92.20
26707;DHT22;14319;49.422;10.934;2022-11-09T07:09:53;10.20;92.10
26707;DHT22;14319;49.422;10.934;2022-11-09T07:11:55;10.10;92.40
26707;DHT22;14319;49.422;10.934;2022-11-09T07:13:58;10.10;92.60
26707;DHT22;14319;49.422;10.934;2022-11-09T07:16:00;10.20;92.50
26707;DHT22;14319;49.422;10.934;2022-11-09T07:18:03;10.20;92.10
26707;DHT22;14319;49.422;10.934;2022-11-09T07:20:08;10.20;92.20
26707;DHT22;14319;49.422;10.934;2022-11-09T07:22:09;10.20;92.00
26707;DHT22;14319;49.422;10.934;2022-11-09T07:24:10;10.20;92.20
26707;DHT22;14319;49.422;10.934;2022-11-09T07:26:11;10.20;92.60
26707;DHT22;14319;49.422;10.934;2022-11-09T07:28:14;10.20;92.50
26707;DHT22;14319;49.422;10.934;2022-11-09T07:30:15;10.20;92.80
26707;DHT22;14319;49.422;10.934;2022-11-09T07:32:16;10.20;92.90
26707;DHT22;14319;49.422;10.934;2022-11-09T07:34:16;10.20;92.80
26707;DHT22;14319;49.422;10.934;2022-11-09T07:36:17;10.20;92.60
26707;DHT22;14319;49.422;10.934;2022-11-09T07:38:18;10.30;92.80
26707;DHT22;14319;49.422;10.934;2022-11-09T07:40:19;10.20;93.00
26707;DHT22;14319;49.422;10.934;2022-11-09T07:42:20;10.30;94.00
26707;DHT22;14319;49.422;10.934;2022-11-09T07:44:21;10.30;93.00
26707;DHT22;14319;49.422;10.934;2022-11-09T07:46:22;10.40;92.80
26707;DHT22;14319;49.422;10.934;2022-11-09T07:48:23;10.50;92.60
26707;DHT22;14319;49.422;10.934;2022-11-09T07:50:24;10.50;92.60
26707;DHT22;14319;49.422;10.934;2022-11-09T07:52:25;10.50;93.00
26707;DHT22;14319;49.422;10.934;2022-11-09T07:54:26;10.50;93.10
26707;DHT22;14319;49.422;10.934;2022-11-09T07:56:27;10.50;93.20
26707;DHT22;14319;49.422;10.934;2022-11-09T07:58:28;10.60;92.80
26707;DHT22;14319;49.422;10.934;2022-11-09T08:00:31;10.70;92.50
26707;DHT22;14319;49.422;10.934;2022-11-09T08:02:31;10.70;92.20
26707;DHT22;14319;49.422;10.934;2022-11-09T08:04:32;10.70;93.10
26707;DHT22;14319;49.422;10.934;2022-11-09T08:06:33;10.70;92.60
26707;DHT22;14319;49.422;10.934;2022-11-09T08:08:34;10.60;92.90
26707;DHT22;14319;49.422;10.934;2022-11-09T08:10:35;10.60;92.80
26707;DHT22;14319;49.422;10.934;2022-11-09T08:12:35;10.60;92.50
26707;DHT22;14319;49.422;10.934;2022-11-09T08:14:36;10.60;92.90
26707;DHT22;14319;49.422;10.934;2022-11-09T08:16:37;10.50;92.90
26707;DHT22;14319;49.422;10.934;2022-11-09T08:18:38;10.60;92.90
26707;DHT22;14319;49.422;10.934;2022-11-09T08:20:39;10.60;93.20
26707;DHT22;14319;49.422;10.934;2022-11-09T08:22:43;10.60;93.40
26707;DHT22;14319;49.422;10.934;2022-11-09T08:24:44;10.50;93.50
26707;DHT22;14319;49.422;10.934;2022-11-09T08:26:45;10.50;93.10
26707;DHT22;14319;49.422;10.934;2022-11-09T08:28:46;10.60;93.50
26707;DHT22;14319;49.422;10.934;2022-11-09T08:30:55;10.60;93.40
26707;DHT22;14319;49.422;10.934;2022-11-09T08:32:58;10.60;93.70
26707;DHT22;14319;49.422;10.934;2022-11-09T08:34:59;10.60;92.90
26707;DHT22;14319;49.422;10.934;2022-11-09T08:37:00;10.60;92.90
26707;DHT22;14319;49.422;10.934;2022-11-09T08:39:01;10.60;93.40
26707;DHT22;14319;49.422;10.934;2022-11-09T08:41:02;10.70;93.80
26707;DHT22;14319;49.422;10.934;2022-11-09T08:43:05;10.70;93.70
26707;DHT22;14319;49.422;10.934;2022-11-09T08:45:08;10.70;94.00
26707;DHT22;14319;49.422;10.934;2022-11-09T08:47:09;10.80;93.20
26707;DHT22;14319;49.422;10.934;2022-11-09T08:49:10;10.80;93.30
26707;DHT22;14319;49.422;10.934;2022-11-09T08:51:10;10.80;92.90
26707;DHT22;14319;49.422;10.934;2022-11-09T08:53:11;10.90;92.90
26707;DHT22;14319;49.422;10.934;2022-11-09T08:55:12;10.80;93.10
26707;DHT22;14319;49.422;10.934;2022-11-09T08:57:13;10.70;93.30
26707;DHT22;14319;49.422;10.934;2022-11-09T08:59:13;10.80;93.90
26707;DHT22;14319;49.422;10.934;2022-11-09T09:01:14;10.90;93.70
26707;DHT22;14319;49.422;10.934;2022-11-09T09:03:15;10.90;94.30
26707;DHT22;14319;49.422;10.934;2022-11-09T09:05:16;10.80;93.70
26707;DHT22;14319;49.422;10.934;2022-11-09T09:07:16;10.80;93.10
26707;DHT22;14319;49.422;10.934;2022-11-09T09:09:17;10.90;93.50
26707;DHT22;14319;49.422;10.934;2022-11-09T09:11:18;10.90;92.40
26707;DHT22;14319;49.422;10.934;2022-11-09T09:13:18;10.90;92.70
26707;DHT22;14319;49.422;10.934;2022-11-09T09:15:21;10.90;93.50
26707;DHT22;14319;49.422;10.934;2022-11-09T09:17:22;10.90;93.60
26707;DHT22;14319;49.422;10.934;2022-11-09T09:19:23;10.80;93.10
26707;DHT22;14319;49.422;10.934;2022-11-09T09:21:24;10.70;93.20
26707;DHT22;14319;49.422;10.934;2022-11-09T09:23:25;10.50;94.60
26707;DHT22;14319;49.422;10.934;2022-11-09T09:25:26;10.50;94.60
26707;DHT22;14319;49.422;10.934;2022-11-09T09:27:27;10.50;94.80
26707;DHT22;14319;49.422;10.934;2022-11-09T09:29:29;10.50;95.00
26707;DHT22;14319;49.422;10.934;2022-11-09T09:31:29;10.50;95.00
26707;DHT22;14319;49.422;10.934;2022-11-09T09:33:30;10.60;95.50
26707;DHT22;14319;49.422;10.934;2022-11-09T09:35:31;10.60;95.70
26707;DHT22;14319;49.422;10.934;2022-11-09T09:37:31;10.80;95.80
26707;DHT22;14319;49.422;10.934;2022-11-09T09:39:32;10.90;95.90
26707;DHT22;14319;49.422;10.934;2022-11-09T09:41:36;11.00;95.60
26707;DHT22;14319;49.422;10.934;2022-11-09T09:43:43;11.10;96.00
26707;DHT22;14319;49.422;10.934;2022-11-09T09:45:50;11.20;95.40
26707;DHT22;14319;49.422;10.934;2022-11-09T09:49:59;11.30;94.60
26707;DHT22;14319;49.422;10.934;2022-11-09T09:52:12;11.50;94.40
26707;DHT22;14319;49.422;10.934;2022-11-09T09:54:18;11.60;93.90
26707;DHT22;14319;49.422;10.934;2022-11-09T09:56:26;11.70;93.90
26707;DHT22;14319;49.422;10.934;2022-11-09T09:58:31;11.70;93.60
26707;DHT22;14319;49.422;10.934;2022-11-09T10:00:32;11.70;93.30
26707;DHT22;14319;49.422;10.934;2022-11-09T10:02:36;11.80;93.30
26707;DHT22;14319;49.422;10.934;2022-11-09T10:04:40;11.80;93.30
26707;DHT22;14319;49.422;10.934;2022-11-09T10:09:30;11.70;92.80
26707;DHT22;14319;49.422;10.934;2022-11-09T10:11:55;11.70;93.30
26707;DHT22;14319;49.422;10.934;2022-11-09T10:14:22;11.60;93.80
26707;DHT22;14319;49.422;10.934;2022-11-09T10:16:33;11.80;94.00
26707;DHT22;14319;49.422;10.934;2022-11-09T10:25:45;12.20;92.70
26707;DHT22;14319;49.422;10.934;2022-11-09T10:27:54;12.30;93.00
26707;DHT22;14319;49.422;10.934;2022-11-09T10:29:56;12.30;93.40
26707;DHT22;14319;49.422;10.934;2022-11-09T10:32:14;12.40;93.80
26707;DHT22;14319;49.422;10.934;2022-11-09T10:36:32;12.30;94.30
26707;DHT22;14319;49.422;10.934;2022-11-09T10:38:43;12.50;93.90
26707;DHT22;14319;49.422;10.934;2022-11-09T10:43:34;12.80;93.00
26707;DHT22;14319;49.422;10.934;2022-11-09T10:46:05;12.80;92.70
26707;DHT22;14319;49.422;10.934;2022-11-09T10:48:36;12.90;92.60
26707;DHT22;14319;49.422;10.934;2022-11-09T10:50:55;12.90;92.50
26707;DHT22;14319;49.422;10.934;2022-11-09T10:53:19;12.90;92.20
26707;DHT22;14319;49.422;10.934;2022-11-09T10:58:37;12.80;93.20
26707;DHT22;14319;49.422;10.934;2022-11-09T11:01:00;12.80;93.60
26707;DHT22;14319;49.422;10.934;2022-11-09T11:03:22;12.80;94.30
26707;DHT22;14319;49.422;10.934;2022-11-09T11:05:42;12.90;94.20
26707;DHT22;14319;49.422;10.934;2022-11-09T11:08:20;12.80;94.50
26707;DHT22;14319;49.422;10.934;2022-11-09T11:10:40;12.90;94.10
26707;DHT22;14319;49.422;10.934;2022-11-09T11:15:25;12.90;94.50
26707;DHT22;14319;49.422;10.934;2022-11-09T11:17:47;13.10;94.10
26707;DHT22;14319;49.422;10.934;2022-11-09T11:22:41;13.20;93.20
26707;DHT22;14319;49.422;10.934;2022-11-09T11:25:19;13.20;93.60
26707;DHT22;14319;49.422;10.934;2022-11-09T11:27:49;13.20;93.60
26707;DHT22;14319;49.422;10.934;2022-11-09T11:32:35;13.20;93.80
26707;DHT22;14319;49.422;10.934;2022-11-09T11:34:54;13.30;93.50
26707;DHT22;14319;49.422;10.934;2022-11-09T11:37:49;13.30;93.60
26707;DHT22;14319;49.422;10.934;2022-11-09T11:40:42;13.30;93.90
26707;DHT22;14319;49.422;10.934;2022-11-09T11:51:48;13.60;92.60
26707;DHT22;14319;49.422;10.934;2022-11-09T11:57:29;13.70;92.10
26707;DHT22;14319;49.422;10.934;2022-11-09T12:05:38;13.80;92.70
26707;DHT22;14319;49.422;10.934;2022-11-09T12:08:21;13.90;92.60
26707;DHT22;14319;49.422;10.934;2022-11-09T12:13:24;13.90;90.40
26707;DHT22;14319;49.422;10.934;2022-11-09T12:16:03;13.90;91.40
26707;DHT22;14319;49.422;10.934;2022-11-09T12:29:36;14.20;91.60
26707;DHT22;14319;49.422;10.934;2022-11-09T12:34:33;14.00;92.90
26707;DHT22;14319;49.422;10.934;2022-11-09T12:37:23;14.00;91.70
26707;DHT22;14319;49.422;10.934;2022-11-09T12:39:51;13.90;91.90
26707;DHT22;14319;49.422;10.934;2022-11-09T12:42:38;13.90;91.70
26707;DHT22;14319;49.422;10.934;2022-11-09T12:45:26;13.80;91.10
26707;DHT22;14319;49.422;10.934;2022-11-09T12:47:47;13.70;92.60
26707;DHT22;14319;49.422;10.934;2022-11-09T12:50:17;13.70;92.90
26707;DHT22;14319;49.422;10.934;2022-11-09T12:52:38;13.90;93.00
26707;DHT22;14319;49.422;10.934;2022-11-09T12:55:00;13.90;92.80
26707;DHT22;14319;49.422;10.934;2022-11-09T12:57:25;14.00;92.60
26707;DHT22;14319;49.422;10.934;2022-11-09T12:59:51;14.10;92.40
26707;DHT22;14319;49.422;10.934;2022-11-09T13:04:57;14.10;91.90
26707;DHT22;14319;49.422;10.934;2022-11-09T13:07:27;14.20;92.00
26707;DHT22;14319;49.422;10.934;2022-11-09T13:09:54;14.30;92.30
26707;DHT22;14319;49.422;10.934;2022-11-09T13:12:26;14.40;91.80
26707;DHT22;14319;49.422;10.934;2022-11-09T13:14:48;14.50;91.50
26707;DHT22;14319;49.422;10.934;2022-11-09T13:22:01;14.30;92.40
26707;DHT22;14319;49.422;10.934;2022-11-09T13:34:58;14.20;92.60
26707;DHT22;14319;49.422;10.934;2022-11-09T13:45:37;14.30;92.60
26707;DHT22;14319;49.422;10.934;2022-11-09T13:47:57;14.30;92.20
26707;DHT22;14319;49.422;10.934;2022-11-09T13:50:19;14.30;92.50
26707;DHT22;14319;49.422;10.934;2022-11-09T13:52:47;14.20;92.70
26707;DHT22;14319;49.422;10.934;2022-11-09T13:58:35;14.20;92.70
26707;DHT22;14319;49.422;10.934;2022-11-09T14:00:53;14.10;93.00
26707;DHT22;14319;49.422;10.934;2022-11-09T14:05:39;14.10;93.40
26707;DHT22;14319;49.422;10.934;2022-11-09T14:08:02;14.20;93.80
26707;DHT22;14319;49.422;10.934;2022-11-09T14:10:42;14.00;93.20
26707;DHT22;14319;49.422;10.934;2022-11-09T14:21:30;13.90;94.10
26707;DHT22;14319;49.422;10.934;2022-11-09T14:23:53;13.90;94.00
26707;DHT22;14319;49.422;10.934;2022-11-09T14:26:19;14.00;94.20
26707;DHT22;14319;49.422;10.934;2022-11-09T14:28:39;14.00;94.20
26707;DHT22;14319;49.422;10.934;2022-11-09T14:30:59;14.00;94.40
26707;DHT22;14319;49.422;10.934;2022-11-09T14:33:30;13.90;95.80
26707;DHT22;14319;49.422;10.934;2022-11-09T14:35:55;13.90;94.60
26707;DHT22;14319;49.422;10.934;2022-11-09T14:38:28;13.80;94.70
26707;DHT22;14319;49.422;10.934;2022-11-09T14:40:50;13.80;93.70
26707;DHT22;14319;49.422;10.934;2022-11-09T14:43:37;13.80;94.20
26707;DHT22;14319;49.422;10.934;2022-11-09T14:46:02;13.70;94.60
26707;DHT22;14319;49.422;10.934;2022-11-09T14:48:22;13.70;94.80
26707;DHT22;14319;49.422;10.934;2022-11-09T14:50:42;13.70;95.00
26707;DHT22;14319;49.422;10.934;2022-11-09T14:53:02;13.80;95.10
26707;DHT22;14319;49.422;10.934;2022-11-09T14:55:23;13.80;95.00
26707;DHT22;14319;49.422;10.934;2022-11-09T14:57:45;13.80;95.50
26707;DHT22;14319;49.422;10.934;2022-11-09T15:00:24;13.70;95.60